Fenwood, Wisconsin
Current Conditions -  °F | °C
As of 4:35 AM on Saturday 20 Dec 2014 (Local Time) from KCWA Reporting Station
Haze Haze  
Wind Chill: 17°   Ceiling: 600
Heat Index: 23°   Visibility: 5mi
Dew Point: 23°   Wind: 5mph
Humidity: 100%   Direction: 170°S
Pressure: 30.23"   Gusts: NA
Location:  44.8973°N, 90.0113°W
Report Text: KCWA 201035Z AUTO 17004KT 5SM BR BKN006 OVC028 M05/M05 A3023 RMK AO2
Loading
Personal Weather Stations






























Interactive Weather Map New forecast layout! Learn more

10-Day Weather Forecast

Advertisements
Track Severe Weather on mobile